sensor_id;sensor_type;location;lat;lon;timestamp;temperature;humidity
54429;DHT22;40337;52.978;6.310;2023-03-31T00:01:49;10.70;99.90
54429;DHT22;40337;52.978;6.310;2023-03-31T00:04:17;10.70;99.90
54429;DHT22;40337;52.978;6.310;2023-03-31T00:06:42;10.70;99.90
54429;DHT22;40337;52.978;6.310;2023-03-31T00:09:13;10.80;99.90
54429;DHT22;40337;52.978;6.310;2023-03-31T00:11:40;10.70;99.90
54429;DHT22;40337;52.978;6.310;2023-03-31T00:14:06;10.70;99.90
54429;DHT22;40337;52.978;6.310;2023-03-31T00:16:33;10.70;99.90
54429;DHT22;40337;52.978;6.310;2023-03-31T00:18:59;10.70;99.90
54429;DHT22;40337;52.978;6.310;2023-03-31T00:21:27;10.70;99.90
54429;DHT22;40337;52.978;6.310;2023-03-31T00:24:05;10.60;99.90
54429;DHT22;40337;52.978;6.310;2023-03-31T00:26:32;10.60;99.90
54429;DHT22;40337;52.978;6.310;2023-03-31T00:28:58;10.60;99.90
54429;DHT22;40337;52.978;6.310;2023-03-31T00:31:25;10.60;99.90
54429;DHT22;40337;52.978;6.310;2023-03-31T00:33:52;10.50;99.90
54429;DHT22;40337;52.978;6.310;2023-03-31T00:36:18;10.40;99.90
54429;DHT22;40337;52.978;6.310;2023-03-31T00:38:52;10.40;99.90
54429;DHT22;40337;52.978;6.310;2023-03-31T00:41:18;10.30;99.90
54429;DHT22;40337;52.978;6.310;2023-03-31T00:44:13;10.30;99.90
54429;DHT22;40337;52.978;6.310;2023-03-31T00:47:12;10.20;99.90
54429;DHT22;40337;52.978;6.310;2023-03-31T00:49:40;10.20;99.90
54429;DHT22;40337;52.978;6.310;2023-03-31T00:52:16;10.10;99.90
54429;DHT22;40337;52.978;6.310;2023-03-31T00:54:46;10.10;99.90
54429;DHT22;40337;52.978;6.310;2023-03-31T00:57:13;10.00;99.90
54429;DHT22;40337;52.978;6.310;2023-03-31T00:59:43;10.00;99.90
54429;DHT22;40337;52.978;6.310;2023-03-31T01:02:12;10.00;99.90
54429;DHT22;40337;52.978;6.310;2023-03-31T01:04:42;9.90;99.90
54429;DHT22;40337;52.978;6.310;2023-03-31T01:07:40;9.80;99.90
54429;DHT22;40337;52.978;6.310;2023-03-31T01:10:07;9.80;99.90
54429;DHT22;40337;52.978;6.310;2023-03-31T01:12:33;9.80;99.90
54429;DHT22;40337;52.978;6.310;2023-03-31T01:15:02;9.70;99.90
54429;DHT22;40337;52.978;6.310;2023-03-31T01:17:29;9.70;99.90
54429;DHT22;40337;52.978;6.310;2023-03-31T01:29:07;9.50;99.90
54429;DHT22;40337;52.978;6.310;2023-03-31T01:40:35;9.50;99.90
54429;DHT22;40337;52.978;6.310;2023-03-31T01:43:22;9.50;99.90
54429;DHT22;40337;52.978;6.310;2023-03-31T01:48:18;9.50;99.90
54429;DHT22;40337;52.978;6.310;2023-03-31T01:56:21;9.60;99.90
54429;DHT22;40337;52.978;6.310;2023-03-31T01:58:58;9.60;99.90
54429;DHT22;40337;52.978;6.310;2023-03-31T02:01:36;9.60;99.90
54429;DHT22;40337;52.978;6.310;2023-03-31T02:04:08;9.60;99.90
54429;DHT22;40337;52.978;6.310;2023-03-31T02:06:40;9.60;99.90
54429;DHT22;40337;52.978;6.310;2023-03-31T02:09:14;9.60;99.90
54429;DHT22;40337;52.978;6.310;2023-03-31T02:11:41;9.60;99.90
54429;DHT22;40337;52.978;6.310;2023-03-31T02:14:10;9.60;99.90
54429;DHT22;40337;52.978;6.310;2023-03-31T02:16:39;9.60;99.90
54429;DHT22;40337;52.978;6.310;2023-03-31T02:19:12;9.60;99.90
54429;DHT22;40337;52.978;6.310;2023-03-31T02:21:45;9.60;99.90
54429;DHT22;40337;52.978;6.310;2023-03-31T02:24:13;9.70;99.90
54429;DHT22;40337;52.978;6.310;2023-03-31T02:26:52;9.70;99.90
54429;DHT22;40337;52.978;6.310;2023-03-31T02:29:19;9.70;99.90
54429;DHT22;40337;52.978;6.310;2023-03-31T02:31:52;9.70;99.90
54429;DHT22;40337;52.978;6.310;2023-03-31T02:34:20;9.70;99.90
54429;DHT22;40337;52.978;6.310;2023-03-31T02:36:46;9.70;99.90
54429;DHT22;40337;52.978;6.310;2023-03-31T02:39:17;9.70;99.90
54429;DHT22;40337;52.978;6.310;2023-03-31T02:41:44;9.70;99.90
54429;DHT22;40337;52.978;6.310;2023-03-31T02:44:10;9.70;99.90
54429;DHT22;40337;52.978;6.310;2023-03-31T02:46:36;9.60;99.90
54429;DHT22;40337;52.978;6.310;2023-03-31T02:49:04;9.60;99.90
54429;DHT22;40337;52.978;6.310;2023-03-31T02:55:14;9.60;99.90
54429;DHT22;40337;52.978;6.310;2023-03-31T02:58:18;9.60;99.90
54429;DHT22;40337;52.978;6.310;2023-03-31T03:03:41;9.60;99.90
54429;DHT22;40337;52.978;6.310;2023-03-31T03:06:40;9.60;99.90
54429;DHT22;40337;52.978;6.310;2023-03-31T03:12:24;9.60;99.90
54429;DHT22;40337;52.978;6.310;2023-03-31T03:14:59;9.70;99.90
54429;DHT22;40337;52.978;6.310;2023-03-31T03:17:35;9.70;99.90
54429;DHT22;40337;52.978;6.310;2023-03-31T03:20:02;9.80;99.90
54429;DHT22;40337;52.978;6.310;2023-03-31T03:22:32;9.80;99.90
54429;DHT22;40337;52.978;6.310;2023-03-31T03:24:58;9.80;99.90
54429;DHT22;40337;52.978;6.310;2023-03-31T03:27:24;9.90;99.90
54429;DHT22;40337;52.978;6.310;2023-03-31T03:29:49;9.90;99.90
54429;DHT22;40337;52.978;6.310;2023-03-31T03:32:15;9.90;99.90
54429;DHT22;40337;52.978;6.310;2023-03-31T03:34:41;9.90;99.90
54429;DHT22;40337;52.978;6.310;2023-03-31T03:37:07;10.00;99.90
54429;DHT22;40337;52.978;6.310;2023-03-31T03:39:32;10.00;99.90
54429;DHT22;40337;52.978;6.310;2023-03-31T03:41:58;10.00;99.90
54429;DHT22;40337;52.978;6.310;2023-03-31T03:44:24;10.00;99.90
54429;DHT22;40337;52.978;6.310;2023-03-31T03:46:49;10.00;99.90
54429;DHT22;40337;52.978;6.310;2023-03-31T03:49:15;10.00;99.90
54429;DHT22;40337;52.978;6.310;2023-03-31T03:51:40;10.00;99.90
54429;DHT22;40337;52.978;6.310;2023-03-31T03:54:06;10.00;99.90
54429;DHT22;40337;52.978;6.310;2023-03-31T03:56:32;10.10;99.90
54429;DHT22;40337;52.978;6.310;2023-03-31T03:58:57;10.00;99.90
54429;DHT22;40337;52.978;6.310;2023-03-31T04:01:23;10.00;99.90
54429;DHT22;40337;52.978;6.310;2023-03-31T04:03:49;10.00;99.90
54429;DHT22;40337;52.978;6.310;2023-03-31T04:06:14;10.00;99.90
54429;DHT22;40337;52.978;6.310;2023-03-31T04:08:40;10.00;99.90
54429;DHT22;40337;52.978;6.310;2023-03-31T04:11:14;10.00;99.90
54429;DHT22;40337;52.978;6.310;2023-03-31T04:13:42;10.00;99.90
54429;DHT22;40337;52.978;6.310;2023-03-31T04:16:08;10.00;99.90
54429;DHT22;40337;52.978;6.310;2023-03-31T04:18:33;10.00;99.90
54429;DHT22;40337;52.978;6.310;2023-03-31T04:21:02;10.00;99.90
54429;DHT22;40337;52.978;6.310;2023-03-31T04:23:34;9.90;99.90
54429;DHT22;40337;52.978;6.310;2023-03-31T04:26:07;9.90;99.90
54429;DHT22;40337;52.978;6.310;2023-03-31T04:28:37;9.90;99.90
54429;DHT22;40337;52.978;6.310;2023-03-31T04:31:04;9.90;99.90
54429;DHT22;40337;52.978;6.310;2023-03-31T04:33:33;9.90;99.90
54429;DHT22;40337;52.978;6.310;2023-03-31T04:36:06;9.90;99.90
54429;DHT22;40337;52.978;6.310;2023-03-31T04:38:45;9.80;99.90
54429;DHT22;40337;52.978;6.310;2023-03-31T04:41:14;9.90;99.90
54429;DHT22;40337;52.978;6.310;2023-03-31T04:43:40;9.90;99.90
54429;DHT22;40337;52.978;6.310;2023-03-31T04:46:05;9.90;99.90
54429;DHT22;40337;52.978;6.310;2023-03-31T04:48:31;9.90;99.90
54429;DHT22;40337;52.978;6.310;2023-03-31T04:50:56;9.90;99.90
54429;DHT22;40337;52.978;6.310;2023-03-31T04:53:22;9.90;99.90
54429;DHT22;40337;52.978;6.310;2023-03-31T04:55:49;9.90;99.90
54429;DHT22;40337;52.978;6.310;2023-03-31T04:58:14;9.90;99.90
54429;DHT22;40337;52.978;6.310;2023-03-31T05:00:40;9.90;99.90
54429;DHT22;40337;52.978;6.310;2023-03-31T05:03:06;9.90;99.90
54429;DHT22;40337;52.978;6.310;2023-03-31T05:05:31;9.90;99.90
54429;DHT22;40337;52.978;6.310;2023-03-31T05:07:57;9.90;99.90
54429;DHT22;40337;52.978;6.310;2023-03-31T05:10:23;9.90;99.90
54429;DHT22;40337;52.978;6.310;2023-03-31T05:12:48;9.90;99.90
54429;DHT22;40337;52.978;6.310;2023-03-31T05:15:14;9.90;99.90
54429;DHT22;40337;52.978;6.310;2023-03-31T05:17:40;9.90;99.90
54429;DHT22;40337;52.978;6.310;2023-03-31T05:20:07;9.90;99.90
54429;DHT22;40337;52.978;6.310;2023-03-31T05:22:35;9.90;99.90
54429;DHT22;40337;52.978;6.310;2023-03-31T05:25:01;9.90;99.90
54429;DHT22;40337;52.978;6.310;2023-03-31T05:27:28;9.90;99.90
54429;DHT22;40337;52.978;6.310;2023-03-31T05:29:53;9.90;99.90
54429;DHT22;40337;52.978;6.310;2023-03-31T05:32:19;9.90;99.90
54429;DHT22;40337;52.978;6.310;2023-03-31T05:34:45;9.90;99.90
54429;DHT22;40337;52.978;6.310;2023-03-31T05:37:10;9.90;99.90
54429;DHT22;40337;52.978;6.310;2023-03-31T05:39:36;9.90;99.90
54429;DHT22;40337;52.978;6.310;2023-03-31T05:42:01;9.90;99.90
54429;DHT22;40337;52.978;6.310;2023-03-31T05:44:27;9.90;99.90
54429;DHT22;40337;52.978;6.310;2023-03-31T05:46:53;9.90;99.90
54429;DHT22;40337;52.978;6.310;2023-03-31T05:49:19;9.90;99.90
54429;DHT22;40337;52.978;6.310;2023-03-31T05:51:44;9.90;99.90
54429;DHT22;40337;52.978;6.310;2023-03-31T05:54:11;9.90;99.90
54429;DHT22;40337;52.978;6.310;2023-03-31T05:56:36;9.90;99.90
54429;DHT22;40337;52.978;6.310;2023-03-31T05:59:02;9.90;99.90
54429;DHT22;40337;52.978;6.310;2023-03-31T06:01:28;9.90;99.90
54429;DHT22;40337;52.978;6.310;2023-03-31T06:03:54;9.90;99.90
54429;DHT22;40337;52.978;6.310;2023-03-31T06:06:20;9.90;99.90
54429;DHT22;40337;52.978;6.310;2023-03-31T06:08:47;9.90;99.90
54429;DHT22;40337;52.978;6.310;2023-03-31T06:11:15;9.90;99.90
54429;DHT22;40337;52.978;6.310;2023-03-31T06:13:44;9.90;99.90
54429;DHT22;40337;52.978;6.310;2023-03-31T06:16:11;9.90;99.90
54429;DHT22;40337;52.978;6.310;2023-03-31T06:18:38;10.00;99.90
54429;DHT22;40337;52.978;6.310;2023-03-31T06:21:04;10.00;99.90
54429;DHT22;40337;52.978;6.310;2023-03-31T06:23:30;10.00;99.90
54429;DHT22;40337;52.978;6.310;2023-03-31T06:26:00;9.90;99.90
54429;DHT22;40337;52.978;6.310;2023-03-31T06:28:27;9.90;99.90
54429;DHT22;40337;52.978;6.310;2023-03-31T06:30:59;9.90;99.90
54429;DHT22;40337;52.978;6.310;2023-03-31T06:33:25;9.90;99.90
54429;DHT22;40337;52.978;6.310;2023-03-31T06:35:50;9.90;99.90
54429;DHT22;40337;52.978;6.310;2023-03-31T06:38:19;9.90;99.90
54429;DHT22;40337;52.978;6.310;2023-03-31T06:40:44;9.90;99.90
54429;DHT22;40337;52.978;6.310;2023-03-31T06:43:10;9.90;99.90
54429;DHT22;40337;52.978;6.310;2023-03-31T06:45:36;9.90;99.90
54429;DHT22;40337;52.978;6.310;2023-03-31T06:48:01;9.90;99.90
54429;DHT22;40337;52.978;6.310;2023-03-31T06:50:27;9.90;99.90
54429;DHT22;40337;52.978;6.310;2023-03-31T06:52:53;10.00;99.90
54429;DHT22;40337;52.978;6.310;2023-03-31T06:55:19;10.10;99.90
54429;DHT22;40337;52.978;6.310;2023-03-31T06:57:45;10.10;99.90
54429;DHT22;40337;52.978;6.310;2023-03-31T07:00:11;10.10;99.90
54429;DHT22;40337;52.978;6.310;2023-03-31T07:02:37;10.10;99.90
54429;DHT22;40337;52.978;6.310;2023-03-31T07:05:02;10.20;99.90
54429;DHT22;40337;52.978;6.310;2023-03-31T07:07:31;10.20;99.90
54429;DHT22;40337;52.978;6.310;2023-03-31T07:09:57;10.20;99.90
54429;DHT22;40337;52.978;6.310;2023-03-31T07:12:22;10.20;99.90
54429;DHT22;40337;52.978;6.310;2023-03-31T07:14:48;10.20;99.90
54429;DHT22;40337;52.978;6.310;2023-03-31T07:17:15;10.10;99.90
54429;DHT22;40337;52.978;6.310;2023-03-31T07:19:40;10.20;99.90
54429;DHT22;40337;52.978;6.310;2023-03-31T07:22:07;10.20;99.90
54429;DHT22;40337;52.978;6.310;2023-03-31T07:24:33;10.20;99.90
54429;DHT22;40337;52.978;6.310;2023-03-31T07:26:58;10.20;99.90
54429;DHT22;40337;52.978;6.310;2023-03-31T07:29:24;10.20;99.90
54429;DHT22;40337;52.978;6.310;2023-03-31T07:31:50;10.20;99.90
54429;DHT22;40337;52.978;6.310;2023-03-31T07:34:15;10.20;99.90
54429;DHT22;40337;52.978;6.310;2023-03-31T07:36:41;10.20;99.90
54429;DHT22;40337;52.978;6.310;2023-03-31T07:39:07;10.30;99.90
54429;DHT22;40337;52.978;6.310;2023-03-31T07:41:32;10.20;99.90
54429;DHT22;40337;52.978;6.310;2023-03-31T07:43:58;10.30;99.90
54429;DHT22;40337;52.978;6.310;2023-03-31T07:46:26;10.30;99.90
54429;DHT22;40337;52.978;6.310;2023-03-31T07:48:53;10.30;99.90
54429;DHT22;40337;52.978;6.310;2023-03-31T07:51:21;10.40;99.90
54429;DHT22;40337;52.978;6.310;2023-03-31T07:53:47;10.40;99.90
54429;DHT22;40337;52.978;6.310;2023-03-31T07:56:18;10.30;99.90
54429;DHT22;40337;52.978;6.310;2023-03-31T07:58:44;10.40;99.90
54429;DHT22;40337;52.978;6.310;2023-03-31T08:01:16;10.40;99.90
54429;DHT22;40337;52.978;6.310;2023-03-31T08:03:44;10.40;99.90
54429;DHT22;40337;52.978;6.310;2023-03-31T08:06:11;10.40;99.90
54429;DHT22;40337;52.978;6.310;2023-03-31T08:08:37;10.40;99.90
54429;DHT22;40337;52.978;6.310;2023-03-31T08:11:07;10.40;99.90
54429;DHT22;40337;52.978;6.310;2023-03-31T08:13:33;10.40;99.90
54429;DHT22;40337;52.978;6.310;2023-03-31T08:15:58;10.50;99.90
54429;DHT22;40337;52.978;6.310;2023-03-31T08:18:24;10.50;99.90
54429;DHT22;40337;52.978;6.310;2023-03-31T08:20:50;10.50;99.90
54429;DHT22;40337;52.978;6.310;2023-03-31T08:23:15;10.50;99.90
54429;DHT22;40337;52.978;6.310;2023-03-31T08:25:41;10.50;99.90
54429;DHT22;40337;52.978;6.310;2023-03-31T08:28:06;10.60;99.90
54429;DHT22;40337;52.978;6.310;2023-03-31T08:30:36;10.60;99.90
54429;DHT22;40337;52.978;6.310;2023-03-31T08:33:03;10.60;99.90
54429;DHT22;40337;52.978;6.310;2023-03-31T08:35:28;10.60;99.90
54429;DHT22;40337;52.978;6.310;2023-03-31T08:37:54;10.60;99.90
54429;DHT22;40337;52.978;6.310;2023-03-31T08:40:23;10.60;99.90
54429;DHT22;40337;52.978;6.310;2023-03-31T08:42:52;10.60;99.90
54429;DHT22;40337;52.978;6.310;2023-03-31T08:45:30;10.70;99.90
54429;DHT22;40337;52.978;6.310;2023-03-31T08:48:02;10.70;99.90
54429;DHT22;40337;52.978;6.310;2023-03-31T08:50:33;10.60;99.90
54429;DHT22;40337;52.978;6.310;2023-03-31T08:53:05;10.60;99.90
54429;DHT22;40337;52.978;6.310;2023-03-31T08:55:48;10.60;99.90
54429;DHT22;40337;52.978;6.310;2023-03-31T08:58:43;10.60;99.90
54429;DHT22;40337;52.978;6.310;2023-03-31T09:07:12;10.70;99.90
54429;DHT22;40337;52.978;6.310;2023-03-31T09:15:14;11.00;99.90
54429;DHT22;40337;52.978;6.310;2023-03-31T09:17:43;11.00;99.90
54429;DHT22;40337;52.978;6.310;2023-03-31T09:20:18;11.10;99.90
54429;DHT22;40337;52.978;6.310;2023-03-31T09:22:48;11.20;99.90
54429;DHT22;40337;52.978;6.310;2023-03-31T09:25:25;11.20;99.90
54429;DHT22;40337;52.978;6.310;2023-03-31T09:27:55;11.30;99.90
54429;DHT22;40337;52.978;6.310;2023-03-31T09:30:25;11.30;99.90
54429;DHT22;40337;52.978;6.310;2023-03-31T09:33:01;11.20;99.90
54429;DHT22;40337;52.978;6.310;2023-03-31T09:35:31;11.20;99.90
54429;DHT22;40337;52.978;6.310;2023-03-31T09:37:58;11.20;99.90
54429;DHT22;40337;52.978;6.310;2023-03-31T09:40:26;11.20;99.90
54429;DHT22;40337;52.978;6.310;2023-03-31T09:42:59;11.10;99.90
54429;DHT22;40337;52.978;6.310;2023-03-31T09:45:26;11.20;99.90
54429;DHT22;40337;52.978;6.310;2023-03-31T09:47:57;11.20;99.90
54429;DHT22;40337;52.978;6.310;2023-03-31T09:50:23;11.20;99.90
54429;DHT22;40337;52.978;6.310;2023-03-31T09:52:58;11.30;99.90
54429;DHT22;40337;52.978;6.310;2023-03-31T09:58:00;11.30;99.90
54429;DHT22;40337;52.978;6.310;2023-03-31T10:00:26;11.30;99.90
54429;DHT22;40337;52.978;6.310;2023-03-31T10:02:54;11.30;99.90
54429;DHT22;40337;52.978;6.310;2023-03-31T10:05:33;11.20;99.90
54429;DHT22;40337;52.978;6.310;2023-03-31T10:10:50;11.30;99.90
54429;DHT22;40337;52.978;6.310;2023-03-31T10:13:21;11.50;99.90
54429;DHT22;40337;52.978;6.310;2023-03-31T10:15:59;11.50;99.90
54429;DHT22;40337;52.978;6.310;2023-03-31T10:18:36;11.60;99.90
54429;DHT22;40337;52.978;6.310;2023-03-31T10:21:04;11.70;99.90
54429;DHT22;40337;52.978;6.310;2023-03-31T10:23:31;11.70;99.90
54429;DHT22;40337;52.978;6.310;2023-03-31T10:25:58;11.80;99.90
54429;DHT22;40337;52.978;6.310;2023-03-31T10:28:25;12.00;99.90
54429;DHT22;40337;52.978;6.310;2023-03-31T10:30:55;12.10;99.90
54429;DHT22;40337;52.978;6.310;2023-03-31T10:33:24;12.20;99.90
54429;DHT22;40337;52.978;6.310;2023-03-31T10:35:58;12.20;99.90
54429;DHT22;40337;52.978;6.310;2023-03-31T10:38:36;12.30;99.90
54429;DHT22;40337;52.978;6.310;2023-03-31T10:41:05;12.40;99.90
54429;DHT22;40337;52.978;6.310;2023-03-31T10:43:49;12.50;99.90
54429;DHT22;40337;52.978;6.310;2023-03-31T10:46:15;12.60;99.90
54429;DHT22;40337;52.978;6.310;2023-03-31T10:48:41;12.60;99.90
54429;DHT22;40337;52.978;6.310;2023-03-31T10:51:25;12.80;99.90
54429;DHT22;40337;52.978;6.310;2023-03-31T10:53:53;12.90;99.90
54429;DHT22;40337;52.978;6.310;2023-03-31T10:56:37;13.10;99.90
54429;DHT22;40337;52.978;6.310;2023-03-31T10:59:11;13.30;99.90
54429;DHT22;40337;52.978;6.310;2023-03-31T11:07:44;13.50;99.90
54429;DHT22;40337;52.978;6.310;2023-03-31T11:16:06;13.00;99.90
54429;DHT22;40337;52.978;6.310;2023-03-31T11:21:43;12.70;99.90
54429;DHT22;40337;52.978;6.310;2023-03-31T11:29:58;13.00;99.90
54429;DHT22;40337;52.978;6.310;2023-03-31T11:41:35;13.50;99.90
54429;DHT22;40337;52.978;6.310;2023-03-31T11:44:04;13.60;99.90
54429;DHT22;40337;52.978;6.310;2023-03-31T11:46:47;13.60;99.90
54429;DHT22;40337;52.978;6.310;2023-03-31T11:49:25;13.60;99.90
54429;DHT22;40337;52.978;6.310;2023-03-31T11:52:17;13.60;99.90
54429;DHT22;40337;52.978;6.310;2023-03-31T11:57:21;13.20;99.90
54429;DHT22;40337;52.978;6.310;2023-03-31T12:00:15;13.20;99.90
54429;DHT22;40337;52.978;6.310;2023-03-31T12:03:00;13.10;99.90
54429;DHT22;40337;52.978;6.310;2023-03-31T12:05:39;13.00;99.90
54429;DHT22;40337;52.978;6.310;2023-03-31T12:08:11;13.00;99.90
54429;DHT22;40337;52.978;6.310;2023-03-31T12:10:42;13.00;99.90
54429;DHT22;40337;52.978;6.310;2023-03-31T12:16:10;13.10;99.90
54429;DHT22;40337;52.978;6.310;2023-03-31T12:18:46;13.10;99.90
54429;DHT22;40337;52.978;6.310;2023-03-31T12:21:19;13.20;99.90
54429;DHT22;40337;52.978;6.310;2023-03-31T14:53:23;13.90;99.90
54429;DHT22;40337;52.978;6.310;2023-03-31T14:55:49;13.70;99.90
54429;DHT22;40337;52.978;6.310;2023-03-31T14:58:23;13.60;99.90
54429;DHT22;40337;52.978;6.310;2023-03-31T15:00:51;13.50;99.90
54429;DHT22;40337;52.978;6.310;2023-03-31T15:03:18;13.40;99.90
54429;DHT22;40337;52.978;6.310;2023-03-31T15:05:44;13.40;99.90
54429;DHT22;40337;52.978;6.310;2023-03-31T15:08:17;13.30;99.90
54429;DHT22;40337;52.978;6.310;2023-03-31T15:10:48;13.30;99.90
54429;DHT22;40337;52.978;6.310;2023-03-31T15:13:31;13.00;99.90
54429;DHT22;40337;52.978;6.310;2023-03-31T15:15:58;13.00;99.90
54429;DHT22;40337;52.978;6.310;2023-03-31T15:18:26;12.90;99.90
54429;DHT22;40337;52.978;6.310;2023-03-31T15:20:52;13.00;99.90
54429;DHT22;40337;52.978;6.310;2023-03-31T15:23:25;13.00;99.90
54429;DHT22;40337;52.978;6.310;2023-03-31T15:26:03;13.00;99.90
54429;DHT22;40337;52.978;6.310;2023-03-31T15:28:43;13.00;99.90
54429;DHT22;40337;52.978;6.310;2023-03-31T15:31:13;12.90;99.90
54429;DHT22;40337;52.978;6.310;2023-03-31T15:33:39;12.90;99.90
54429;DHT22;40337;52.978;6.310;2023-03-31T15:36:07;12.90;99.90
54429;DHT22;40337;52.978;6.310;2023-03-31T15:38:33;12.90;99.90
54429;DHT22;40337;52.978;6.310;2023-03-31T15:40:59;13.00;99.90
54429;DHT22;40337;52.978;6.310;2023-03-31T15:43:30;12.90;99.90
54429;DHT22;40337;52.978;6.310;2023-03-31T15:45:57;13.00;99.90
54429;DHT22;40337;52.978;6.310;2023-03-31T15:48:33;12.90;99.90
54429;DHT22;40337;52.978;6.310;2023-03-31T15:51:01;12.90;99.90
54429;DHT22;40337;52.978;6.310;2023-03-31T15:53:31;12.70;99.90
54429;DHT22;40337;52.978;6.310;2023-03-31T15:55:59;12.60;99.90
54429;DHT22;40337;52.978;6.310;2023-03-31T16:01:11;12.50;99.90
54429;DHT22;40337;52.978;6.310;2023-03-31T16:03:40;12.40;99.90
54429;DHT22;40337;52.978;6.310;2023-03-31T16:09:03;12.40;99.90
54429;DHT22;40337;52.978;6.310;2023-03-31T16:11:35;12.40;99.90
54429;DHT22;40337;52.978;6.310;2023-03-31T16:14:08;12.40;99.90
54429;DHT22;40337;52.978;6.310;2023-03-31T16:16:35;12.40;99.90
54429;DHT22;40337;52.978;6.310;2023-03-31T16:19:04;12.40;99.90
54429;DHT22;40337;52.978;6.310;2023-03-31T16:21:40;12.40;99.90
54429;DHT22;40337;52.978;6.310;2023-03-31T16:24:07;12.40;99.90
54429;DHT22;40337;52.978;6.310;2023-03-31T16:26:33;12.30;99.90
54429;DHT22;40337;52.978;6.310;2023-03-31T16:29:00;12.40;99.90
54429;DHT22;40337;52.978;6.310;2023-03-31T16:31:44;12.40;99.90
54429;DHT22;40337;52.978;6.310;2023-03-31T16:34:10;12.40;99.90
54429;DHT22;40337;52.978;6.310;2023-03-31T16:36:36;12.30;99.90
54429;DHT22;40337;52.978;6.310;2023-03-31T16:39:04;12.40;99.90
54429;DHT22;40337;52.978;6.310;2023-03-31T16:41:31;12.40;99.90
54429;DHT22;40337;52.978;6.310;2023-03-31T16:43:57;12.40;99.90
54429;DHT22;40337;52.978;6.310;2023-03-31T16:46:22;12.30;99.90
54429;DHT22;40337;52.978;6.310;2023-03-31T16:48:49;12.40;99.90
54429;DHT22;40337;52.978;6.310;2023-03-31T16:51:15;12.30;99.90
54429;DHT22;40337;52.978;6.310;2023-03-31T16:53:42;12.30;99.90
54429;DHT22;40337;52.978;6.310;2023-03-31T16:56:08;12.30;99.90
54429;DHT22;40337;52.978;6.310;2023-03-31T16:58:35;12.20;99.90
54429;DHT22;40337;52.978;6.310;2023-03-31T17:01:02;12.20;99.90
54429;DHT22;40337;52.978;6.310;2023-03-31T17:03:28;12.20;99.90
54429;DHT22;40337;52.978;6.310;2023-03-31T17:05:55;12.20;99.90
54429;DHT22;40337;52.978;6.310;2023-03-31T17:08:23;12.20;99.90
54429;DHT22;40337;52.978;6.310;2023-03-31T17:11:01;12.20;99.90
54429;DHT22;40337;52.978;6.310;2023-03-31T17:13:28;12.20;99.90
54429;DHT22;40337;52.978;6.310;2023-03-31T17:15:53;12.10;99.90
54429;DHT22;40337;52.978;6.310;2023-03-31T17:18:19;12.10;99.90
54429;DHT22;40337;52.978;6.310;2023-03-31T17:20:45;12.00;99.90
54429;DHT22;40337;52.978;6.310;2023-03-31T17:23:11;11.90;99.90
54429;DHT22;40337;52.978;6.310;2023-03-31T17:25:37;11.80;99.90
54429;DHT22;40337;52.978;6.310;2023-03-31T17:28:03;11.70;99.90
54429;DHT22;40337;52.978;6.310;2023-03-31T17:30:29;11.60;99.90
54429;DHT22;40337;52.978;6.310;2023-03-31T17:32:56;11.60;99.90
54429;DHT22;40337;52.978;6.310;2023-03-31T17:35:21;11.50;99.90
54429;DHT22;40337;52.978;6.310;2023-03-31T17:37:48;11.40;99.90
54429;DHT22;40337;52.978;6.310;2023-03-31T17:40:15;11.30;99.90
54429;DHT22;40337;52.978;6.310;2023-03-31T17:42:41;11.30;99.90
54429;DHT22;40337;52.978;6.310;2023-03-31T17:45:09;11.30;99.90
54429;DHT22;40337;52.978;6.310;2023-03-31T17:47:35;11.30;99.90
54429;DHT22;40337;52.978;6.310;2023-03-31T17:50:02;11.20;99.90
54429;DHT22;40337;52.978;6.310;2023-03-31T17:52:27;11.20;99.90
54429;DHT22;40337;52.978;6.310;2023-03-31T17:54:53;11.20;99.90
54429;DHT22;40337;52.978;6.310;2023-03-31T17:57:21;11.20;99.90
54429;DHT22;40337;52.978;6.310;2023-03-31T17:59:47;11.20;99.90
54429;DHT22;40337;52.978;6.310;2023-03-31T18:02:14;11.20;99.90
54429;DHT22;40337;52.978;6.310;2023-03-31T18:04:40;11.20;99.90
54429;DHT22;40337;52.978;6.310;2023-03-31T18:07:06;11.30;99.90
54429;DHT22;40337;52.978;6.310;2023-03-31T18:09:32;11.30;99.90
54429;DHT22;40337;52.978;6.310;2023-03-31T18:11:58;11.30;99.90
54429;DHT22;40337;52.978;6.310;2023-03-31T18:14:24;11.30;99.90
54429;DHT22;40337;52.978;6.310;2023-03-31T18:16:49;11.30;99.90
54429;DHT22;40337;52.978;6.310;2023-03-31T18:19:15;11.40;99.90
54429;DHT22;40337;52.978;6.310;2023-03-31T18:21:41;11.30;99.90
54429;DHT22;40337;52.978;6.310;2023-03-31T18:24:06;11.40;99.90
54429;DHT22;40337;52.978;6.310;2023-03-31T18:26:32;11.30;99.90
54429;DHT22;40337;52.978;6.310;2023-03-31T18:28:58;11.40;99.90
54429;DHT22;40337;52.978;6.310;2023-03-31T18:31:23;11.30;99.90
54429;DHT22;40337;52.978;6.310;2023-03-31T18:33:51;11.30;99.90
54429;DHT22;40337;52.978;6.310;2023-03-31T18:36:20;11.30;99.90
54429;DHT22;40337;52.978;6.310;2023-03-31T18:38:47;11.30;99.90
54429;DHT22;40337;52.978;6.310;2023-03-31T18:41:14;11.30;99.90
54429;DHT22;40337;52.978;6.310;2023-03-31T18:43:40;11.30;99.90
54429;DHT22;40337;52.978;6.310;2023-03-31T18:46:06;11.40;99.90
54429;DHT22;40337;52.978;6.310;2023-03-31T18:48:32;11.30;99.90
54429;DHT22;40337;52.978;6.310;2023-03-31T18:50:59;11.30;99.90
54429;DHT22;40337;52.978;6.310;2023-03-31T18:53:25;11.30;99.90
54429;DHT22;40337;52.978;6.310;2023-03-31T18:55:56;11.30;99.90
54429;DHT22;40337;52.978;6.310;2023-03-31T18:58:22;11.30;99.90
54429;DHT22;40337;52.978;6.310;2023-03-31T19:00:48;11.30;99.90
54429;DHT22;40337;52.978;6.310;2023-03-31T19:03:15;11.20;99.90
54429;DHT22;40337;52.978;6.310;2023-03-31T19:05:40;11.20;99.90
54429;DHT22;40337;52.978;6.310;2023-03-31T19:08:07;11.20;99.90
54429;DHT22;40337;52.978;6.310;2023-03-31T19:10:32;11.10;99.90
54429;DHT22;40337;52.978;6.310;2023-03-31T19:12:58;11.20;99.90
54429;DHT22;40337;52.978;6.310;2023-03-31T19:15:24;11.20;99.90
54429;DHT22;40337;52.978;6.310;2023-03-31T19:17:51;11.10;99.90
54429;DHT22;40337;52.978;6.310;2023-03-31T19:20:17;11.10;99.90
54429;DHT22;40337;52.978;6.310;2023-03-31T19:22:44;11.10;99.90
54429;DHT22;40337;52.978;6.310;2023-03-31T19:25:11;11.00;99.90
54429;DHT22;40337;52.978;6.310;2023-03-31T19:27:37;11.00;99.90
54429;DHT22;40337;52.978;6.310;2023-03-31T19:30:04;11.00;99.90
54429;DHT22;40337;52.978;6.310;2023-03-31T19:32:31;10.90;99.90
54429;DHT22;40337;52.978;6.310;2023-03-31T19:34:56;10.90;99.90
54429;DHT22;40337;52.978;6.310;2023-03-31T19:37:22;10.90;99.90
54429;DHT22;40337;52.978;6.310;2023-03-31T19:39:48;10.90;99.90
54429;DHT22;40337;52.978;6.310;2023-03-31T19:42:14;10.80;99.90
54429;DHT22;40337;52.978;6.310;2023-03-31T19:44:42;10.90;99.90
54429;DHT22;40337;52.978;6.310;2023-03-31T19:47:07;10.90;99.90
54429;DHT22;40337;52.978;6.310;2023-03-31T19:49:33;10.90;99.90